This is the latest recevied weather packets stored in our database for station/object SR7U-1. If no packets are shown the sender has not sent any weather packets the latest 10 day(s).
| Time | Temp. | Humidity | Pressure | Rain* | Wind** | Luminosity | Snow |
|---|---|---|---|---|---|---|---|
| 1777761295 | 11.11° C | 66% | 1020 hPa | - | - | - | - |
| 1777760419 | 10° C | 69% | 1020.3 hPa | - | - | - | - |
| 1777759555 | 9.44° C | 72% | 1020.2 hPa | - | - | - | - |
| 1777758682 | 10.56° C | 71% | 1020.3 hPa | - | - | - | - |
| 1777757902 | 10.56° C | 69% | 1020.4 hPa | - | - | - | - |
| 1777757110 | 12.22° C | 62% | 1020.3 hPa | - | - | - | - |
| 1777756325 | 13.89° C | 58% | 1020.3 hPa | - | - | - | - |
| 1777755600 | 14.44° C | 56% | 1020.4 hPa | - | - | - | - |
| 1777754840 | 14.44° C | 55% | 1020.6 hPa | - | - | - | - |
| 1777754095 | 14.44° C | 54% | 1020.6 hPa | - | - | - | - |
| 1777753270 | 15° C | 55% | 1020.6 hPa | - | - | - | - |
| 1777752390 | 15° C | 54% | 1020.6 hPa | - | - | - | - |
| 1777751634 | 15° C | 55% | 1020.6 hPa | - | - | - | - |
| 1777750780 | 15.56° C | 53% | 1020.6 hPa | - | - | - | - |
| 1777750000 | 15.56° C | 52% | 1020.7 hPa | - | - | - | - |
| 1777749125 | 16.11° C | 51% | 1020.8 hPa | - | - | - | - |
| 1777748265 | 16.67° C | 49% | 1020.7 hPa | - | - | - | - |
| 1777747502 | 17.22° C | 48% | 1020.6 hPa | - | - | - | - |
| 1777746700 | 16.67° C | 50% | 1020.6 hPa | - | - | - | - |
| 1777745905 | 17.22° C | 48% | 1020.6 hPa | - | - | - | - |
| 1777745120 | 17.78° C | 46% | 1020.4 hPa | - | - | - | - |
| 1777744270 | 17.78° C | 47% | 1020.4 hPa | - | - | - | - |
| 1777743378 | 18.89° C | 43% | 1020.4 hPa | - | - | - | - |
| 1777742502 | 20° C | 40% | 1020.4 hPa | - | - | - | - |
| 1777741680 | 20° C | 39% | 1020.3 hPa | - | - | - | - |
* Rain since midnight (hover to see other rain measurements)
** Current wind speed in m/s (hover to see current wind gust speed)